Time;durP1;ratioP1;P1;durP2;ratioP2;P2;SDS_P1;SDS_P2;PMS_P1;PMS_P2;Temp;Humidity;BMP_temperature;BMP_pressure;BME280_temperature;BME280_humidity;BME280_pressure;Samples;Min_cycle;Max_cycle;Signal;HPM_P1;HPM_P2
2023/07/09 00:01:37;;;;;;;;;10.75;9.75;;;;;26.91;48.91;101184.03;4901324;29;45322;-45
2023/07/09 00:04:02;;;;;;;;;9.50;8.00;;;;;26.91;48.60;101184.03;4900818;29;53253;-46
2023/07/09 00:06:28;;;;;;;;;9.00;8.00;;;;;26.89;49.12;101185.97;4901176;29;45291;-46
2023/07/09 00:08:53;;;;;;;;;12.25;10.00;;;;;26.90;49.14;101192.97;4901318;29;45213;-47
2023/07/09 00:11:19;;;;;;;;;9.25;8.50;;;;;26.89;49.20;101185.97;4901088;29;45316;-44
2023/07/09 00:13:44;;;;;;;;;11.00;8.00;;;;;26.90;49.22;101193.81;4901333;29;45275;-50
2023/07/09 00:16:21;;;;;;;;;9.00;9.00;;;;;26.90;49.12;101191.16;4900873;29;45515;-47
2023/07/09 00:18:48;;;;;;;;;10.00;8.25;;;;;26.90;49.20;101192.97;4901083;29;45401;-46
2023/07/09 00:21:14;;;;;;;;;11.25;10.25;;;;;26.91;49.29;101200.00;4900881;29;45451;-45
2023/07/09 00:23:41;;;;;;;;;10.50;9.25;;;;;26.89;49.29;101197.47;4901368;28;45389;-46
2023/07/09 00:26:15;;;;;;;;;10.75;9.25;;;;;26.90;49.30;101203.63;4914230;28;47204;-47
2023/07/09 00:28:42;;;;;;;;;9.25;8.25;;;;;26.91;49.36;101202.66;4901194;29;45401;-46
2023/07/09 00:31:16;;;;;;;;;12.75;9.00;;;;;26.90;49.33;101208.94;4900872;29;45346;-45
2023/07/09 00:33:42;;;;;;;;;10.75;10.75;;;;;26.90;49.70;101206.28;4901120;29;45358;-45
2023/07/09 00:36:28;;;;;;;;;10.75;9.50;;;;;26.89;49.30;101204.56;4900811;29;46415;-46
2023/07/09 00:38:54;;;;;;;;;11.25;10.50;;;;;26.90;49.38;101206.28;4900663;28;45653;-44
2023/07/09 00:41:22;;;;;;;;;10.00;10.00;;;;;26.91;49.18;101210.63;4900603;29;45295;-44
2023/07/09 00:43:50;;;;;;;;;10.00;10.00;;;;;26.89;49.43;101208.09;4901031;29;45448;-46
2023/07/09 00:46:27;;;;;;;;;10.00;8.50;;;;;26.90;49.46;101216.91;4900139;29;45434;-43
2023/07/09 00:49:00;;;;;;;;;9.75;8.50;;;;;26.89;49.44;101218.75;4900748;29;45671;-45
2023/07/09 00:51:27;;;;;;;;;10.00;10.00;;;;;26.89;49.50;101217.88;4900871;29;45473;-49
2023/07/09 00:53:58;;;;;;;;;8.25;8.25;;;;;26.88;49.70;101217.03;4900959;28;45343;-43
2023/07/09 00:56:46;;;;;;;;;10.50;10.00;;;;;26.90;49.20;101219.56;4900348;28;45770;-45
2023/07/09 00:59:17;;;;;;;;;10.00;10.00;;;;;26.87;49.64;101222.47;4900486;29;45706;-47
2023/07/09 01:01:43;;;;;;;;;12.75;8.00;;;;;26.89;49.95;101223.19;4900762;29;45430;-46
2023/07/09 01:04:10;;;;;;;;;13.25;9.50;;;;;26.88;49.96;101221.50;4900784;29;45535;-44
2023/07/09 01:06:41;;;;;;;;;9.00;7.25;;;;;26.88;49.64;101221.50;4900212;29;46547;-44
2023/07/09 01:09:07;;;;;;;;;10.75;9.25;;;;;26.88;49.65;101221.50;4900342;29;45877;-46
2023/07/09 01:11:33;;;;;;;;;10.00;10.00;;;;;26.88;49.51;101221.50;4900054;29;45429;-46
2023/07/09 01:14:02;;;;;;;;;10.00;9.25;;;;;26.88;49.48;101230.34;4900839;29;45605;-46
2023/07/09 01:16:31;;;;;;;;;11.00;11.00;;;;;26.89;49.80;101223.19;4900147;29;45363;-43
2023/07/09 01:18:57;;;;;;;;;13.50;11.00;;;;;26.89;49.51;101233.84;4900592;29;45874;-45
2023/07/09 01:21:22;;;;;;;;;11.50;10.00;;;;;26.88;49.72;101221.50;4898729;29;45429;-43
2023/07/09 01:23:49;;;;;;;;;9.00;8.75;;;;;26.87;49.67;101230.44;4899816;29;50888;-43
2023/07/09 01:26:24;;;;;;;;;12.50;10.50;;;;;26.88;49.94;101232.13;4914247;28;48476;-45
2023/07/09 01:28:50;;;;;;;;;9.00;9.00;;;;;26.87;49.71;101230.44;4900155;29;45859;-46
2023/07/09 01:31:16;;;;;;;;;9.50;8.00;;;;;26.87;49.76;101235.75;4899845;29;45487;-45
2023/07/09 01:33:44;;;;;;;;;10.00;8.50;;;;;26.87;50.09;101241.06;4900335;29;45411;-46
2023/07/09 01:36:13;;;;;;;;;9.00;8.50;;;;;26.87;49.93;101241.06;4899720;29;46663;-46
2023/07/09 01:38:42;;;;;;;;;8.00;8.00;;;;;26.86;50.03;101240.25;4899882;29;45747;-47
2023/07/09 01:41:08;;;;;;;;;10.00;9.00;;;;;26.87;49.97;101249.06;4899965;29;45499;-44
2023/07/09 01:43:34;;;;;;;;;11.25;10.00;;;;;26.86;50.09;101253.53;4899865;29;45549;-46
2023/07/09 01:46:00;;;;;;;;;11.00;10.00;;;;;26.84;49.89;101248.31;4900244;29;45492;-46
2023/07/09 01:48:26;;;;;;;;;10.50;9.50;;;;;26.85;49.58;101255.34;4899778;29;45260;-46
2023/07/09 01:50:53;;;;;;;;;11.75;10.00;;;;;26.87;50.12;101260.56;4899870;29;45417;-46
2023/07/09 01:53:25;;;;;;;;;8.50;8.25;;;;;26.85;50.00;101258.00;4899772;29;45585;-44
2023/07/09 01:55:51;;;;;;;;;9.50;9.00;;;;;26.84;49.97;101260.78;4899792;28;46473;-46
2023/07/09 01:58:17;;;;;;;;;7.50;7.50;;;;;26.84;50.09;101263.44;4914166;28;45808;-45
2023/07/09 02:00:44;;;;;;;;;9.00;8.25;;;;;26.83;49.96;101262.59;4899786;28;45472;-45
2023/07/09 02:03:10;;;;;;;;;9.50;9.25;;;;;26.83;50.47;101256.41;4899917;29;45450;-46
2023/07/09 02:05:36;;;;;;;;;11.25;11.00;;;;;26.83;50.29;101259.94;4899191;28;46206;-46
2023/07/09 02:08:02;;;;;;;;;9.00;9.00;;;;;26.84;50.40;101263.44;4914273;28;45935;-48
2023/07/09 02:10:28;;;;;;;;;9.00;9.00;;;;;26.82;50.23;101258.25;4899578;29;45343;-44
2023/07/09 02:12:53;;;;;;;;;10.50;10.00;;;;;26.82;50.21;101260.91;4899756;29;45624;-45
2023/07/09 02:15:18;;;;;;;;;8.50;8.25;;;;;26.83;50.23;101264.41;4899032;28;45417;-48
2023/07/09 02:17:45;;;;;;;;;11.00;8.75;;;;;26.82;50.50;101255.59;4899448;29;45204;-46
2023/07/09 02:20:12;;;;;;;;;10.00;9.00;;;;;26.81;50.09;101253.88;4899539;28;45373;-46
2023/07/09 02:22:38;;;;;;;;;11.75;10.00;;;;;26.82;50.25;101258.25;4899490;28;45326;-47
2023/07/09 02:25:05;;;;;;;;;9.50;8.00;;;;;26.82;50.33;101258.25;4899170;28;46799;-45
2023/07/09 02:27:32;;;;;;;;;12.25;9.25;;;;;26.80;50.09;101246.88;4899047;29;45350;-44
2023/07/09 02:29:57;;;;;;;;;12.00;11.50;;;;;26.82;50.11;101250.28;4899675;29;45251;-46
2023/07/09 02:32:26;;;;;;;;;9.75;8.75;;;;;26.81;50.12;101248.56;4899231;29;45597;-46
2023/07/09 02:34:52;;;;;;;;;12.00;11.00;;;;;26.81;50.36;101251.22;4899180;29;46737;-46
2023/07/09 02:37:20;;;;;;;;;11.00;10.00;;;;;26.82;49.99;101258.25;4898928;28;45736;-44
2023/07/09 02:39:45;;;;;;;;;12.00;10.00;;;;;26.79;50.11;101250.50;4899427;29;45339;-44
2023/07/09 02:42:13;;;;;;;;;10.50;10.00;;;;;26.81;50.37;101255.69;4899469;29;45430;-48
2023/07/09 02:44:40;;;;;;;;;8.25;8.25;;;;;26.80;50.23;101260.16;4899065;28;46495;-49
2023/07/09 02:47:06;;;;;;;;;11.50;8.50;;;;;26.81;50.19;101259.22;4899070;29;45327;-48
2023/07/09 02:49:31;;;;;;;;;9.50;8.50;;;;;26.79;50.31;101254.97;4900969;29;45244;-46
2023/07/09 02:51:56;;;;;;;;;8.50;8.50;;;;;26.79;50.18;101258.47;4903057;29;45559;-47
2023/07/09 02:54:22;;;;;;;;;9.25;9.25;;;;;26.80;50.13;101262.84;4902050;29;45442;-46
2023/07/09 02:56:47;;;;;;;;;11.00;9.00;;;;;26.80;50.30;101256.66;4902411;29;45414;-46
2023/07/09 02:59:12;;;;;;;;;11.50;9.75;;;;;26.79;50.43;101257.63;4902166;29;45408;-46
2023/07/09 03:01:38;;;;;;;;;8.00;8.00;;;;;26.79;50.13;101258.47;4901976;29;49149;-44
2023/07/09 03:04:04;;;;;;;;;10.00;8.75;;;;;26.79;50.38;101260.31;4902220;29;46687;-47
2023/07/09 03:06:32;;;;;;;;;9.00;9.00;;;;;26.79;50.67;101266.44;4902211;29;45429;-45
2023/07/09 03:08:59;;;;;;;;;8.75;8.00;;;;;26.79;50.05;101269.09;4902693;28;45280;-43
2023/07/09 03:11:24;;;;;;;;;11.00;9.00;;;;;26.78;50.19;101270.06;4902012;28;45528;-45
2023/07/09 03:13:50;;;;;;;;;11.75;11.75;;;;;26.78;50.30;101275.38;4901679;29;56164;-46
2023/07/09 03:16:16;;;;;;;;;7.00;7.00;;;;;26.79;50.69;101282.41;4901660;29;45212;-45
2023/07/09 03:18:42;;;;;;;;;10.00;10.00;;;;;26.79;50.45;101277.09;4902141;28;45260;-44
2023/07/09 03:21:07;;;;;;;;;8.00;7.50;;;;;26.78;50.50;101283.38;4902301;29;45549;-44
2023/07/09 03:23:32;;;;;;;;;10.75;9.00;;;;;26.79;50.73;101278.91;4901728;29;45430;-44
2023/07/09 03:25:59;;;;;;;;;11.75;10.00;;;;;26.77;50.62;101280.81;4901960;29;45410;-46
2023/07/09 03:28:25;;;;;;;;;10.50;8.75;;;;;26.77;50.62;101281.63;4901789;29;45286;-47
2023/07/09 03:30:54;;;;;;;;;9.25;9.25;;;;;26.77;50.81;101284.28;4901986;29;45533;-45
2023/07/09 03:33:19;;;;;;;;;9.00;9.00;;;;;26.77;50.89;101286.94;4901425;29;45431;-44
2023/07/09 03:35:45;;;;;;;;;9.50;9.00;;;;;26.77;50.61;101284.28;4901816;29;45363;-46
2023/07/09 03:38:11;;;;;;;;;8.25;8.25;;;;;26.76;50.65;101282.59;4901900;29;45301;-47
2023/07/09 03:40:37;;;;;;;;;9.50;7.75;;;;;26.77;50.63;101284.28;4902002;29;45441;-45
2023/07/09 03:43:03;;;;;;;;;8.00;8.00;;;;;26.74;50.46;101284.53;4901637;29;45548;-46
2023/07/09 03:45:30;;;;;;;;;9.75;8.00;;;;;26.78;50.69;101295.84;4901644;29;45983;-44
2023/07/09 03:47:55;;;;;;;;;8.00;8.00;;;;;26.76;50.69;101279.94;4901878;29;45322;-44
2023/07/09 03:50:21;;;;;;;;;10.00;8.00;;;;;26.76;50.22;101282.59;4901438;28;46131;-45
2023/07/09 03:52:47;;;;;;;;;11.00;6.50;;;;;26.76;50.57;101285.25;4916021;28;45452;-45
2023/07/09 03:55:14;;;;;;;;;11.75;10.00;;;;;26.77;50.55;101288.78;4901086;29;45884;-45
2023/07/09 03:57:39;;;;;;;;;6.75;6.75;;;;;26.77;50.68;101291.44;4901615;29;45326;-47
2023/07/09 04:00:10;;;;;;;;;6.25;4.75;;;;;26.76;50.64;101290.56;4901649;29;45436;-44
2023/07/09 04:02:35;;;;;;;;;8.50;8.50;;;;;26.76;50.66;101290.56;4901013;29;47326;-44
2023/07/09 04:05:00;;;;;;;;;11.25;8.25;;;;;26.76;50.60;101284.41;4915845;28;56095;-44
2023/07/09 04:07:25;;;;;;;;;10.00;8.75;;;;;26.75;50.95;101286.22;4900713;29;55205;-44
2023/07/09 04:09:51;;;;;;;;;12.67;10.00;;;;;26.76;50.57;101284.41;4900877;29;52895;-43
2023/07/09 04:12:16;;;;;;;;;10.50;9.25;;;;;26.76;51.08;101293.22;4900923;29;45974;-45
2023/07/09 04:14:41;;;;;;;;;11.25;9.00;;;;;26.75;51.11;101288.88;4901208;29;45832;-43
2023/07/09 04:17:07;;;;;;;;;10.75;9.00;;;;;26.76;50.89;101289.75;4915840;28;45322;-46
2023/07/09 04:19:32;;;;;;;;;9.75;8.75;;;;;26.77;51.12;101305.56;4915817;28;45307;-45
2023/07/09 04:21:58;;;;;;;;;8.75;8.75;;;;;26.74;51.02;101303.13;4901302;29;46232;-44
2023/07/09 04:24:23;;;;;;;;;8.50;8.50;;;;;26.76;50.89;101298.56;4900764;29;45429;-45
2023/07/09 04:26:48;;;;;;;;;6.50;6.50;;;;;26.75;50.94;101296.84;4901251;29;45442;-46
2023/07/09 04:29:14;;;;;;;;;8.00;7.00;;;;;26.73;50.80;101293.47;4916034;28;45283;-56
2023/07/09 04:31:40;;;;;;;;;8.25;6.75;;;;;26.72;50.62;101296.25;4901291;29;46035;-54
2023/07/09 04:34:06;;;;;;;;;9.00;9.00;;;;;26.66;50.68;101293.09;4901491;29;45425;-56
2023/07/09 04:36:32;;;;;;;;;7.25;6.50;;;;;26.63;50.90;101292.44;4901957;29;45278;-57
2023/07/09 04:38:57;;;;;;;;;10.00;8.25;;;;;26.61;50.88;101286.44;4901869;29;45584;-57
2023/07/09 04:41:24;;;;;;;;;11.50;11.00;;;;;26.57;50.86;101293.75;4901277;28;47513;-58
2023/07/09 04:43:50;;;;;;;;;10.00;8.50;;;;;26.55;50.76;101287.72;4901147;29;45488;-57
2023/07/09 04:46:15;;;;;;;;;9.50;7.75;;;;;26.51;50.86;101289.75;4916031;28;45330;-56
2023/07/09 04:48:40;;;;;;;;;8.25;8.00;;;;;26.50;50.88;101290.72;4901539;29;45264;-57
2023/07/09 04:51:06;;;;;;;;;8.50;8.25;;;;;26.48;50.94;101287.34;4905734;28;46311;-60
2023/07/09 04:53:31;;;;;;;;;9.50;9.50;;;;;26.45;50.68;101281.41;4919201;28;45418;-59
2023/07/09 04:55:57;;;;;;;;;9.50;9.50;;;;;26.45;51.06;101278.75;4920251;28;45314;-58
2023/07/09 04:58:22;;;;;;;;;10.50;9.25;;;;;26.45;50.51;101276.09;4920431;28;45183;-58
2023/07/09 05:00:50;;;;;;;;;9.75;9.00;;;;;26.43;50.53;101276.19;4919508;28;57448;-55
2023/07/09 05:03:16;;;;;;;;;8.50;8.50;;;;;26.43;50.48;101273.53;4920026;28;45251;-55
2023/07/09 05:05:43;;;;;;;;;12.75;10.50;;;;;26.43;50.66;101270.03;4920130;28;45288;-56
2023/07/09 05:08:09;;;;;;;;;11.00;10.25;;;;;26.42;50.80;101270.97;4920476;28;45423;-56
2023/07/09 05:10:40;;;;;;;;;10.50;8.00;;;;;26.40;50.53;101273.78;4920236;28;45310;-57
2023/07/09 05:13:05;;;;;;;;;9.75;9.00;;;;;26.39;50.30;101283.53;4919479;28;45805;-57
2023/07/09 05:15:30;;;;;;;;;10.50;10.25;;;;;26.41;50.21;101282.56;4920338;28;45346;-55
2023/07/09 05:17:56;;;;;;;;;10.75;9.00;;;;;26.41;50.20;101272.78;4920251;28;45509;-60
2023/07/09 05:20:21;;;;;;;;;9.75;9.75;;;;;26.39;50.37;101274.72;4919616;28;56918;-58
2023/07/09 05:22:46;;;;;;;;;8.25;8.25;;;;;26.39;50.06;101264.94;4919845;28;45400;-58
2023/07/09 05:25:12;;;;;;;;;9.50;8.50;;;;;26.38;49.61;101271.19;4919805;28;45444;-58
2023/07/09 05:27:37;;;;;;;;;11.00;9.25;;;;;26.38;49.88;101273.03;4920183;28;45608;-58
2023/07/09 05:30:04;;;;;;;;;8.25;8.25;;;;;26.38;49.86;101268.53;4919819;28;45489;-60
2023/07/09 05:32:29;;;;;;;;;9.50;9.50;;;;;26.37;49.87;101284.63;4919830;28;45437;-57
2023/07/09 05:34:55;;;;;;;;;7.00;7.00;;;;;26.35;49.75;101290.03;4934699;28;45774;-55
2023/07/09 05:37:20;;;;;;;;;9.75;9.25;;;;;26.35;49.43;101292.69;4920057;28;45377;-59
2023/07/09 05:39:45;;;;;;;;;12.00;8.00;;;;;26.36;49.42;101285.56;4919468;28;45373;-59
2023/07/09 05:42:11;;;;;;;;;8.00;7.00;;;;;26.36;49.28;101290.88;4919184;28;49192;-58
2023/07/09 05:44:39;;;;;;;;;8.25;8.00;;;;;26.34;49.20;101282.19;4920006;28;45316;-60
2023/07/09 05:47:05;;;;;;;;;8.00;8.00;;;;;26.35;49.18;101286.53;4920192;28;45164;-57
2023/07/09 05:49:30;;;;;;;;;8.00;8.00;;;;;26.34;49.57;101284.84;4919363;28;45330;-57
2023/07/09 05:51:56;;;;;;;;;10.25;7.00;;;;;26.35;49.60;101281.22;4919223;28;45182;-59
2023/07/09 05:54:21;;;;;;;;;8.50;8.50;;;;;26.36;48.92;101269.63;4919488;28;45307;-60
2023/07/09 05:56:47;;;;;;;;;8.50;7.50;;;;;26.34;49.08;101261.78;4934265;28;45279;-61
2023/07/09 05:59:12;;;;;;;;;6.25;6.25;;;;;26.35;48.92;101271.41;4918219;28;47315;-60
2023/07/09 06:01:37;;;;;;;;;6.25;3.75;;;;;26.35;49.06;101267.94;4919688;28;45341;-56
2023/07/09 06:04:03;;;;;;;;;8.50;7.25;;;;;26.35;48.71;101275.91;4918471;28;45769;-59
2023/07/09 06:06:28;;;;;;;;;7.00;7.00;;;;;26.36;49.04;101270.47;4934318;28;45502;-57
2023/07/09 06:08:54;;;;;;;;;10.50;7.75;;;;;26.38;48.90;101275.69;4917838;28;48049;-61
2023/07/09 06:11:19;;;;;;;;;8.00;7.00;;;;;26.39;48.73;101285.34;4919056;28;45381;-60
2023/07/09 06:13:47;;;;;;;;;8.75;8.75;;;;;26.39;48.67;101274.72;4919476;28;45379;-59
2023/07/09 06:16:13;;;;;;;;;7.00;7.00;;;;;26.40;48.65;101273.78;4919302;28;45293;-60
2023/07/09 06:18:39;;;;;;;;;8.00;8.00;;;;;26.39;48.59;101272.06;4933771;28;46495;-55
2023/07/09 06:21:04;;;;;;;;;7.00;7.00;;;;;26.38;48.35;101288.97;4934018;28;45230;-57
2023/07/09 06:23:30;;;;;;;;;8.00;7.25;;;;;26.41;48.63;101302.00;4918001;28;45334;-58
2023/07/09 06:25:56;;;;;;;;;7.75;6.50;;;;;26.40;48.45;101303.00;4918671;28;45568;-56
2023/07/09 06:28:24;;;;;;;;;6.75;6.75;;;;;26.41;48.53;101306.50;4918596;28;46049;-57
2023/07/09 06:30:52;;;;;;;;;11.50;11.25;;;;;26.40;48.31;101308.31;4918718;28;45869;-58
2023/07/09 06:33:19;;;;;;;;;8.00;6.50;;;;;26.40;48.27;101313.63;4918827;28;45279;-58
2023/07/09 06:35:54;;;;;;;;;8.25;7.00;;;;;26.42;48.37;101321.47;4918337;28;45317;-57
2023/07/09 06:38:20;;;;;;;;;7.00;7.00;;;;;26.41;48.06;101317.97;4918354;28;46274;-57
2023/07/09 06:40:47;;;;;;;;;10.50;8.25;;;;;26.42;48.39;101327.63;4918521;28;45254;-56
2023/07/09 06:43:13;;;;;;;;;6.00;6.00;;;;;26.42;47.94;101317.00;4918817;28;45467;-57
2023/07/09 06:45:38;;;;;;;;;8.50;6.50;;;;;26.44;48.37;101319.56;4917761;28;45564;-57
2023/07/09 06:48:04;;;;;;;;;7.75;7.75;;;;;26.44;48.35;101322.22;4917170;28;47052;-53
2023/07/09 06:50:33;;;;;;;;;8.50;8.50;;;;;26.46;48.40;101331.78;4918430;28;45475;-56
2023/07/09 06:52:58;;;;;;;;;8.50;8.00;;;;;26.49;48.22;101333.34;4918586;28;45236;-59
2023/07/09 06:55:23;;;;;;;;;9.50;7.00;;;;;26.49;48.08;101350.16;4918710;28;45280;-56
2023/07/09 06:57:49;;;;;;;;;8.50;7.00;;;;;26.51;48.10;101337.59;4918496;28;46133;-57
2023/07/09 07:00:15;;;;;;;;;6.00;6.00;;;;;26.51;47.94;101336.75;4918480;28;45330;-57
2023/07/09 07:02:40;;;;;;;;;10.00;7.25;;;;;26.51;47.97;101329.59;4918800;28;45407;-58
2023/07/09 07:05:06;;;;;;;;;6.75;6.00;;;;;26.50;47.92;101327.94;4917298;28;45417;-56
2023/07/09 07:07:31;;;;;;;;;7.50;5.50;;;;;26.53;47.84;101322.38;4932798;28;47558;-56
2023/07/09 07:09:56;;;;;;;;;7.25;7.25;;;;;26.54;48.02;101320.59;4918344;28;45410;-55
2023/07/09 07:12:25;;;;;;;;;9.50;6.00;;;;;26.54;48.04;101326.72;4918199;28;45258;-57
2023/07/09 07:14:50;;;;;;;;;9.50;7.25;;;;;26.55;47.80;101319.63;4918579;28;45543;-55
2023/07/09 07:17:16;;;;;;;;;6.00;5.00;;;;;26.56;47.57;101313.34;4918067;28;46008;-56
2023/07/09 07:19:41;;;;;;;;;5.75;5.75;;;;;26.57;47.73;101316.84;4918526;28;45380;-55
2023/07/09 07:22:07;;;;;;;;;7.00;5.75;;;;;26.57;47.71;101325.66;4918202;28;45293;-55
2023/07/09 07:24:32;;;;;;;;;7.00;6.25;;;;;26.57;47.73;101322.16;4918190;28;45560;-57
2023/07/09 07:26:58;;;;;;;;;8.00;7.00;;;;;26.58;47.48;101327.34;4916736;28;48244;-57
2023/07/09 07:29:23;;;;;;;;;8.00;7.00;;;;;26.59;47.45;101330.88;4918050;28;45330;-58
2023/07/09 07:31:49;;;;;;;;;7.50;7.50;;;;;26.60;47.66;101345.88;4918159;28;45257;-55
2023/07/09 07:34:14;;;;;;;;;7.25;6.50;;;;;26.60;47.53;101356.50;4918508;28;45322;-56
2023/07/09 07:36:39;;;;;;;;;5.50;4.50;;;;;26.61;47.46;101352.88;4921428;28;46382;-58
2023/07/09 07:39:05;;;;;;;;;6.00;5.25;;;;;26.60;47.50;101356.50;4921186;28;45276;-54
2023/07/09 07:41:30;;;;;;;;;7.50;7.00;;;;;26.62;47.45;101357.25;4921375;28;45912;-57
2023/07/09 07:43:55;;;;;;;;;10.00;7.00;;;;;26.62;47.42;101362.56;4921012;28;49709;-58
2023/07/09 07:46:21;;;;;;;;;7.25;5.00;;;;;26.63;47.34;101372.19;4921150;28;46533;-58
2023/07/09 07:48:46;;;;;;;;;6.25;6.25;;;;;26.61;47.35;101375.00;4921254;28;45374;-58
2023/07/09 07:51:12;;;;;;;;;5.25;5.25;;;;;26.62;47.39;101397.13;4921395;28;45285;-55
2023/07/09 07:53:38;;;;;;;;;6.75;6.75;;;;;26.61;47.26;101428.16;4921454;28;45320;-58
2023/07/09 07:56:04;;;;;;;;;9.25;7.00;;;;;26.63;47.44;101436.00;4920970;28;46038;-55
2023/07/09 07:58:30;;;;;;;;;6.75;6.75;;;;;26.61;47.66;101432.63;4921129;28;45492;-57
2023/07/09 08:00:56;;;;;;;;;8.25;7.75;;;;;26.62;47.58;101434.34;4921152;28;45357;-57
2023/07/09 08:03:22;;;;;;;;;11.25;7.50;;;;;26.62;47.50;101432.53;4921311;28;45479;-58
2023/07/09 08:05:49;;;;;;;;;7.25;7.25;;;;;26.62;47.90;101437.00;4920937;28;45502;-58
2023/07/09 08:08:15;;;;;;;;;7.25;7.25;;;;;26.65;47.74;101428.78;4921174;28;45733;-57
2023/07/09 08:10:40;;;;;;;;;4.75;3.75;;;;;26.65;47.74;101404.84;4921186;28;45310;-58
2023/07/09 08:13:06;;;;;;;;;6.00;6.00;;;;;26.65;47.89;101386.25;4921132;28;45347;-58
2023/07/09 08:15:32;;;;;;;;;7.25;7.25;;;;;26.65;48.00;101387.09;4920527;28;45371;-58
2023/07/09 08:17:57;;;;;;;;;10.75;7.50;;;;;26.64;47.81;101384.53;4920706;28;45701;-59
2023/07/09 08:20:22;;;;;;;;;10.75;9.00;;;;;26.65;48.01;101394.22;4920744;28;45387;-59
2023/07/09 08:22:48;;;;;;;;;7.75;7.75;;;;;26.65;47.76;101384.44;4921037;28;45418;-54
2023/07/09 08:25:13;;;;;;;;;9.25;7.00;;;;;26.65;48.08;101381.78;4920677;28;45480;-56
2023/07/09 08:27:38;;;;;;;;;9.75;7.75;;;;;26.63;47.53;101389.03;4920582;28;45399;-56
2023/07/09 08:30:05;;;;;;;;;7.00;6.25;;;;;26.64;47.61;101384.53;4920634;28;45330;-57
2023/07/09 08:32:30;;;;;;;;;8.50;7.75;;;;;26.63;47.79;101377.53;4920848;28;45588;-57
2023/07/09 08:34:56;;;;;;;;;7.25;7.25;;;;;26.64;47.61;101385.41;4920326;28;45601;-55
2023/07/09 08:37:21;;;;;;;;;6.00;6.00;;;;;26.64;47.65;101379.22;4920259;28;49861;-55
2023/07/09 08:39:46;;;;;;;;;8.00;7.00;;;;;26.63;47.38;101383.72;4920669;28;47826;-53
2023/07/09 08:42:17;;;;;;;;;8.00;6.50;;;;;26.65;47.43;101420.81;4921025;28;45398;-54
2023/07/09 08:44:48;;;;;;;;;8.25;6.50;;;;;26.64;47.64;101435.06;4920769;28;46854;-54
2023/07/09 08:47:25;;;;;;;;;6.75;6.25;;;;;26.65;47.76;101436.75;4919774;28;45230;-54
2023/07/09 08:50:04;;;;;;;;;7.75;7.75;;;;;26.64;47.76;101443.03;4920495;28;45278;-55
2023/07/09 08:52:36;;;;;;;;;6.75;6.00;;;;;26.64;47.69;101435.06;4920444;28;45363;-54
2023/07/09 08:55:09;;;;;;;;;9.50;6.00;;;;;26.65;47.92;101444.72;4920209;28;46547;-53
2023/07/09 08:57:39;;;;;;;;;9.00;7.75;;;;;26.64;47.88;101448.34;4920296;28;45664;-54
2023/07/09 09:00:16;;;;;;;;;9.50;8.00;;;;;26.65;48.20;101466.00;4920265;28;45422;-55
2023/07/09 09:03:19;;;;;;;;;7.50;7.50;;;;;26.65;48.01;101463.34;4934855;28;45652;-53
2023/07/09 09:05:49;;;;;;;;;7.75;7.50;;;;;26.67;47.76;101470.28;4898224;28;45496;-54
2023/07/09 09:08:20;;;;;;;;;6.75;6.00;;;;;26.69;47.91;101472.81;4920193;28;45670;-55
2023/07/09 09:11:00;;;;;;;;;12.00;7.00;;;;;26.69;48.46;101464.84;4920228;28;45402;-53
2023/07/09 09:13:28;;;;;;;;;7.00;7.00;;;;;26.71;48.17;101449.63;4920222;28;45426;-53
2023/07/09 09:15:59;;;;;;;;;9.00;7.00;;;;;26.71;48.20;101428.34;4919700;28;46393;-53
2023/07/09 09:18:27;;;;;;;;;9.25;7.00;;;;;26.70;48.09;101421.34;4919984;28;45597;-53
2023/07/09 09:20:59;;;;;;;;;10.25;8.00;;;;;26.71;48.22;101417.72;4919906;28;45359;-50
2023/07/09 09:23:36;;;;;;;;;9.75;9.00;;;;;26.71;48.07;101428.34;4920240;28;45306;-51
2023/07/09 09:26:09;;;;;;;;;9.25;8.25;;;;;26.73;48.29;101420.25;4919512;28;45306;-53
2023/07/09 09:28:37;;;;;;;;;7.25;5.50;;;;;26.75;48.02;101423.66;4919818;28;45757;-55
2023/07/09 09:31:03;;;;;;;;;7.00;7.00;;;;;26.74;47.82;101425.44;4919343;28;51015;-54
2023/07/09 09:33:40;;;;;;;;;7.25;6.25;;;;;26.75;47.95;101416.50;4934208;28;47206;-55
2023/07/09 09:36:06;;;;;;;;;8.00;6.50;;;;;26.76;47.65;101428.00;4919684;28;46208;-54
2023/07/09 09:38:35;;;;;;;;;8.25;6.75;;;;;26.76;47.95;101428.84;4934280;28;45869;-53
2023/07/09 09:41:02;;;;;;;;;8.25;8.00;;;;;26.76;47.87;101430.66;4934398;28;45274;-53
2023/07/09 09:43:32;;;;;;;;;7.00;7.00;;;;;26.75;47.71;101437.78;4919611;28;45499;-54
2023/07/09 09:46:00;;;;;;;;;8.00;6.50;;;;;26.77;47.95;101457.16;4919307;28;45450;-54
2023/07/09 09:48:32;;;;;;;;;6.00;6.00;;;;;26.77;47.80;101470.44;4933866;28;45630;-55
2023/07/09 09:51:01;;;;;;;;;8.00;8.00;;;;;26.79;47.61;101471.22;4934258;28;45366;-53
2023/07/09 09:53:28;;;;;;;;;7.25;7.25;;;;;26.78;47.97;101474.00;4919565;28;45446;-55
2023/07/09 09:55:56;;;;;;;;;8.75;6.50;;;;;26.79;47.61;101478.34;4919142;28;45473;-55
2023/07/09 09:58:28;;;;;;;;;7.25;7.25;;;;;26.78;47.61;101474.84;4919261;28;45667;-55
2023/07/09 10:00:56;;;;;;;;;8.25;8.00;;;;;26.79;47.76;101479.19;4919474;28;45461;-55
2023/07/09 10:03:32;;;;;;;;;7.75;7.00;;;;;26.78;47.47;101471.34;4919951;28;45561;-55
2023/07/09 10:06:00;;;;;;;;;6.25;6.25;;;;;26.76;47.93;101468.75;4919089;28;45768;-54
2023/07/09 10:08:45;;;;;;;;;6.25;6.00;;;;;26.78;47.78;101488.13;4933682;28;45398;-54
2023/07/09 10:11:50;;;;;;;;;9.25;7.25;;;;;26.78;47.87;101489.94;4919026;28;45203;-54
2023/07/09 10:14:34;;;;;;;;;8.50;8.00;;;;;26.78;48.36;101464.19;4919342;28;45460;-55
2023/07/09 10:17:11;;;;;;;;;7.25;7.25;;;;;26.78;48.26;101437.59;4918406;28;45626;-57
2023/07/09 10:19:48;;;;;;;;;7.25;7.00;;;;;26.78;48.55;101407.50;4919060;28;45484;-55
2023/07/09 10:22:20;;;;;;;;;9.75;9.00;;;;;26.77;48.46;101377.38;4918994;28;45366;-54
2023/07/09 10:24:57;;;;;;;;;8.50;8.50;;;;;26.78;48.78;101373.78;4919043;28;45370;-54
2023/07/09 10:27:31;;;;;;;;;10.25;9.50;;;;;26.79;48.82;101390.59;4919161;28;46415;-54
2023/07/09 10:30:22;;;;;;;;;7.50;7.50;;;;;26.77;49.37;101398.63;4918632;28;45659;-52
2023/07/09 10:33:24;;;;;;;;;8.00;7.50;;;;;26.76;49.37;101399.59;4918574;28;45224;-55
2023/07/09 10:36:06;;;;;;;;;8.25;8.25;;;;;26.75;49.50;101399.72;4919110;28;45440;-55
2023/07/09 10:38:48;;;;;;;;;9.00;9.00;;;;;26.74;49.26;101409.50;4918617;28;46570;-54
2023/07/09 10:41:14;;;;;;;;;11.00;9.75;;;;;26.72;49.09;101426.53;4918757;28;45678;-55
2023/07/09 10:43:53;;;;;;;;;9.00;7.25;;;;;26.73;49.46;101434.41;4918813;28;45496;-54
2023/07/09 10:46:24;;;;;;;;;8.00;7.50;;;;;26.74;49.33;101449.38;4918811;28;45483;-54
2023/07/09 10:48:52;;;;;;;;;10.25;9.25;;;;;26.72;49.45;101456.66;4918940;28;45280;-53
2023/07/09 10:51:31;;;;;;;;;10.00;8.75;;;;;26.71;49.21;101452.28;4918491;28;45550;-53
2023/07/09 10:54:27;;;;;;;;;11.25;8.25;;;;;26.72;49.45;101447.81;4918620;28;45294;-54
2023/07/09 10:57:00;;;;;;;;;8.50;8.00;;;;;26.70;49.59;101442.59;4919141;28;45223;-53
2023/07/09 10:59:32;;;;;;;;;10.75;8.75;;;;;26.67;49.81;101445.47;4918390;28;45629;-55
2023/07/09 11:02:22;;;;;;;;;11.25;9.00;;;;;26.69;49.57;101448.88;4918394;28;45334;-53
2023/07/09 11:04:52;;;;;;;;;11.50;8.00;;;;;26.71;49.74;101428.34;4908291;28;45496;-54
2023/07/09 11:07:27;;;;;;;;;12.00;10.50;;;;;26.71;49.69;101436.31;4918612;28;45332;-55
2023/07/09 11:09:56;;;;;;;;;10.50;10.50;;;;;26.74;49.45;101435.25;4919749;28;46351;-53
2023/07/09 11:12:38;;;;;;;;;10.50;7.75;;;;;26.75;49.54;101421.84;4921726;28;45729;-55
2023/07/09 11:15:08;;;;;;;;;7.00;7.00;;;;;26.78;49.36;101416.31;4920587;28;45386;-55
2023/07/09 11:17:37;;;;;;;;;9.75;8.75;;;;;26.80;49.62;101405.56;4921706;28;45186;-55
2023/07/09 11:20:15;;;;;;;;;9.75;9.00;;;;;26.82;49.27;101409.84;4921480;28;46157;-55
2023/07/09 11:22:40;;;;;;;;;8.50;8.50;;;;;26.84;49.20;101405.22;4921467;28;45397;-53
2023/07/09 11:25:15;;;;;;;;;10.50;8.25;;;;;26.88;49.25;101399.69;4921403;28;45496;-52
2023/07/09 11:27:46;;;;;;;;;9.75;8.00;;;;;26.88;49.19;101395.22;4921694;28;45452;-54